الصفحة الرئيسية
METAR-TAF:

METAR-TAF

مطار :

كوراساو, جزر الأنتيل الهولندية

دائرة عرض: 12-12N, خط طول: 068-58W, ارتفاع: 9 متر

مراقبة الطقس الحالي

تاريخ ووقت الإصدار 52 دقيقة قبل الساعة 23:00UTC
ريح 3 عقدة من الجنوب الشرقي
درجة الحرارة 25°درجة مئوية
الرطوبة 83%
ضغط 1010 hPa
الرؤية 10 كم أو أكثر
غيوم قليلة على ارتفاع 1600 قدم, مزن ركامية عمودية.
زخات من الأمطار الخفيفة

METAR: TNCC 122300Z 13003KT 9999 -SHRA FEW016TCU 25/22 Q1010 NOSIG

زمن: 19:52 (23:52 UTC)

توقعات

تاريخ ووقت الإصدار 37 دقيقة قبل الساعة 23:15UTC
التوقعات صالحة من13 الساعة 00 UTC إلى 13 الساعة 24 UTC
ريح 10 عقدة من الشرق
الرؤية 10 كم أو أكثر
غيوم متفرقة على ارتفاع 1600 قدم
مؤقت
من 13 الساعة 00 UTC إلى 13 الساعة 14 UTC
ريح 20 عقدة من الشرق
الرؤية: 6000 متر
غيوم مفككة على ارتفاع 1400 قدم
زخات من المطر

TAF: TNCC 122315Z 1300/1324 08010KT 9999 SCT016 TEMPO 1300/1314 08020KT 6000 SHRA BKN014

أرصاد الطقس والتوقعات من أكثر من 4000 مطار (تقارير الطقس للمطار METAR والتنبؤ بالطقس بالمطارTAF).

المحطات المتاحة هي النقط الصفراء والحمراء على الخريطة.

حرك المؤشر فوق النقطة لمعرفة اسم المحطة.

ثم انقر لمعرفة أرصاد وتوقعات الطقس.

لتغيير الخارطة: اضغط على الأزرار الخضراء مع رمز الصليب الأسود للتكبير. على الزر الأخضر مع شرطة للتصغير، أو على الأسهم الخضراء للخرائط المجاورة.


METAR-TAF: